Allentown, Illinois
Current Conditions -  °F | °C
As of 2:04 PM on Saturday 20 Dec 2014 (Local Time) from KPIA Reporting Station
Overcast Overcast  
Wind Chill: 30°   Ceiling: 2300
Heat Index: 36°   Visibility: 7mi
Dew Point: 26°   Wind: 7mph
Humidity: 67%   Direction: 170°S
Pressure: 30.23"   Gusts: NA
Location:  40.4817°N, 89.4923°W
Report Text: KPIA 202004Z 17006KT 7SM BKN023 OVC055 02/M03 A3023 RMK AO2 T00221033
Loading
Personal Weather Stations






























Interactive Weather Map New forecast layout! Learn more

10-Day Weather Forecast

Advertisements
Track Severe Weather on mobile